Time;durP1;ratioP1;P1;durP2;ratioP2;P2;SDS_P1;SDS_P2;PMS_P1;PMS_P2;Temp;Humidity;BMP_temperature;BMP_pressure;BME280_temperature;BME280_humidity;BME280_pressure;Samples;Min_cycle;Max_cycle;Signal;HPM_P1;HPM_P2
2021/08/10 00:00:44;;;;;;;9.10;5.18;;;14.60;99.90;;;;;;5072771;28;20052;-70
2021/08/10 00:03:10;;;;;;;9.27;5.45;;;14.70;99.90;;;;;;5073080;28;20044;-71
2021/08/10 00:05:36;;;;;;;11.02;5.50;;;14.60;99.90;;;;;;5073511;28;20439;-71
2021/08/10 00:08:04;;;;;;;7.93;5.15;;;14.60;99.90;;;;;;5073486;28;20032;-71
2021/08/10 00:10:30;;;;;;;8.18;5.43;;;14.60;99.90;;;;;;5072573;28;20043;-71
2021/08/10 00:12:56;;;;;;;7.30;5.22;;;14.60;99.90;;;;;;5073222;28;20052;-71
2021/08/10 00:15:22;;;;;;;8.15;6.20;;;14.60;99.90;;;;;;5073444;28;20036;-70
2021/08/10 00:17:48;;;;;;;12.25;5.45;;;14.60;99.90;;;;;;5073109;28;20040;-70
2021/08/10 00:20:14;;;;;;;9.48;5.53;;;14.60;99.90;;;;;;5072437;28;20109;-71
2021/08/10 00:22:40;;;;;;;16.88;5.82;;;14.60;99.90;;;;;;5073252;28;20071;-70
2021/08/10 00:25:07;;;;;;;11.85;5.32;;;14.60;99.90;;;;;;5072678;28;20484;-71
2021/08/10 00:27:33;;;;;;;9.40;5.95;;;14.60;99.90;;;;;;5072800;28;20036;-71
2021/08/10 00:29:59;;;;;;;7.55;5.30;;;14.50;99.90;;;;;;5072825;28;20606;-70
2021/08/10 00:32:26;;;;;;;10.73;6.28;;;14.50;99.90;;;;;;5074019;28;20067;-70
2021/08/10 00:34:53;;;;;;;13.55;5.90;;;14.60;99.90;;;;;;5075115;28;20064;-70
2021/08/10 00:37:19;;;;;;;11.05;6.03;;;14.50;99.90;;;;;;5076210;28;20075;-70
2021/08/10 00:39:45;;;;;;;7.88;5.85;;;14.50;99.90;;;;;;5076036;28;20068;-70
2021/08/10 00:42:11;;;;;;;11.25;6.65;;;14.50;99.90;;;;;;5076210;28;20032;-70
2021/08/10 00:44:38;;;;;;;9.18;6.18;;;14.50;99.90;;;;;;5076505;28;20036;-71
2021/08/10 00:47:04;;;;;;;9.55;5.82;;;14.50;99.90;;;;;;5076259;28;20033;-71
2021/08/10 00:49:30;;;;;;;8.82;5.85;;;14.50;99.90;;;;;;5075776;28;20072;-70
2021/08/10 00:51:56;;;;;;;10.75;6.10;;;14.60;99.90;;;;;;5076044;28;20503;-71
2021/08/10 00:54:24;;;;;;;10.10;6.25;;;14.60;99.90;;;;;;5076106;28;20037;-71
2021/08/10 00:56:52;;;;;;;9.57;6.05;;;14.60;99.90;;;;;;5075885;28;20032;-71
2021/08/10 00:59:18;;;;;;;13.35;6.63;;;14.60;99.90;;;;;;5075565;28;20051;-71
2021/08/10 01:01:44;;;;;;;9.35;6.00;;;14.60;99.90;;;;;;5075957;28;20037;-71
2021/08/10 01:04:09;;;;;;;11.50;6.60;;;14.60;99.90;;;;;;5075795;28;20058;-70
2021/08/10 01:07:20;;;;;;;12.70;6.60;;;14.60;99.90;;;;;;5076220;28;20044;-71
2021/08/10 01:10:08;;;;;;;11.10;6.57;;;14.60;99.90;;;;;;5066715;28;20062;-71
2021/08/10 01:12:56;;;;;;;14.98;7.85;;;14.60;99.90;;;;;;5075660;28;20044;-71
2021/08/10 01:15:31;;;;;;;12.80;7.10;;;14.60;99.90;;;;;;5075833;28;20043;-70
2021/08/10 01:18:19;;;;;;;14.73;7.35;;;14.60;99.90;;;;;;5075907;28;20041;-70
2021/08/10 01:21:09;;;;;;;13.38;8.27;;;14.70;99.90;;;;;;5075244;28;20036;-71
2021/08/10 01:23:36;;;;;;;11.43;7.03;;;14.60;99.90;;;;;;5075453;28;20040;-70
2021/08/10 01:26:24;;;;;;;10.98;7.05;;;14.60;99.90;;;;;;5075748;28;20041;-70
2021/08/10 01:29:15;;;;;;;11.93;8.07;;;14.60;99.90;;;;;;5075056;28;20440;-70
2021/08/10 01:31:42;;;;;;;12.27;8.02;;;14.60;99.90;;;;;;5075321;28;20032;-71
2021/08/10 01:34:20;;;;;;;13.43;7.53;;;14.60;99.90;;;;;;5075288;28;20036;-70
2021/08/10 01:36:48;;;;;;;11.20;7.45;;;14.60;99.90;;;;;;5074374;28;20041;-70
2021/08/10 01:39:15;;;;;;;13.90;8.38;;;14.60;99.90;;;;;;5075049;28;20542;-70
2021/08/10 01:41:42;;;;;;;14.82;8.68;;;14.60;99.90;;;;;;5074990;28;20396;-70
2021/08/10 01:44:11;;;;;;;15.70;8.48;;;14.70;99.90;;;;;;5074681;28;20492;-71
2021/08/10 01:46:39;;;;;;;12.90;8.57;;;14.60;99.90;;;;;;5075127;28;20040;-70
2021/08/10 01:49:05;;;;;;;12.15;8.82;;;14.70;99.90;;;;;;5074650;28;20040;-70
2021/08/10 01:51:31;;;;;;;14.65;8.57;;;14.70;99.90;;;;;;5074846;28;20045;-71
2021/08/10 01:53:59;;;;;;;12.25;8.25;;;14.70;99.90;;;;;;5075025;28;20465;-70
2021/08/10 01:56:26;;;;;;;16.10;8.77;;;14.70;99.90;;;;;;5074758;28;20067;-70
2021/08/10 01:58:53;;;;;;;13.38;8.75;;;14.70;99.90;;;;;;5074483;28;20098;-70
2021/08/10 02:01:20;;;;;;;13.18;8.60;;;14.70;99.90;;;;;;5075003;28;20044;-71
2021/08/10 02:03:46;;;;;;;13.57;7.95;;;14.70;99.90;;;;;;5075223;28;20115;-70
2021/08/10 02:06:14;;;;;;;14.18;8.07;;;14.70;99.90;;;;;;5075067;28;20123;-70
2021/08/10 02:08:40;;;;;;;14.43;8.70;;;14.80;99.90;;;;;;5074091;28;20039;-70
2021/08/10 02:11:08;;;;;;;14.13;8.20;;;14.70;99.90;;;;;;5074909;28;20450;-71
2021/08/10 02:13:38;;;;;;;13.50;7.93;;;14.70;99.90;;;;;;5074251;28;20033;-70
2021/08/10 02:16:06;;;;;;;14.10;7.70;;;14.80;99.90;;;;;;5074572;28;20120;-70
2021/08/10 02:18:38;;;;;;;11.82;8.10;;;14.70;99.90;;;;;;5074207;28;20068;-71
2021/08/10 02:21:14;;;;;;;14.52;8.10;;;14.70;99.90;;;;;;5074523;28;20035;-70
2021/08/10 02:23:40;;;;;;;12.48;8.43;;;14.70;99.90;;;;;;5073114;28;20043;-71
2021/08/10 02:26:07;;;;;;;11.90;7.45;;;14.70;99.90;;;;;;5074284;28;20079;-71
2021/08/10 02:28:34;;;;;;;11.18;6.72;;;14.70;99.90;;;;;;5073756;28;20060;-70
2021/08/10 02:31:03;;;;;;;11.32;7.22;;;14.80;99.90;;;;;;5073990;28;20044;-70
2021/08/10 02:33:29;;;;;;;16.60;7.50;;;14.70;99.90;;;;;;5074255;28;20044;-70
2021/08/10 02:36:00;;;;;;;13.88;7.93;;;14.70;99.90;;;;;;5074586;28;20044;-70
2021/08/10 02:38:29;;;;;;;10.48;7.32;;;14.70;99.90;;;;;;5074016;28;20491;-71
2021/08/10 02:40:57;;;;;;;11.93;7.13;;;14.70;99.90;;;;;;5073771;28;20163;-70
2021/08/10 02:43:25;;;;;;;14.60;6.45;;;14.70;99.90;;;;;;5074205;28;20044;-71
2021/08/10 02:45:51;;;;;;;12.70;8.25;;;14.70;99.90;;;;;;5074013;28;20125;-70
2021/08/10 02:48:16;;;;;;;12.13;6.72;;;14.70;99.90;;;;;;5072916;28;20491;-70
2021/08/10 02:50:42;;;;;;;11.07;7.35;;;14.70;99.90;;;;;;5073756;28;20040;-70
2021/08/10 02:53:08;;;;;;;10.13;7.05;;;14.70;99.90;;;;;;5072719;28;20036;-70
2021/08/10 02:55:35;;;;;;;15.55;7.50;;;14.70;99.90;;;;;;5071751;28;20116;-71
2021/08/10 02:58:09;;;;;;;14.75;7.55;;;14.70;99.90;;;;;;5073841;28;20051;-70
2021/08/10 03:00:47;;;;;;;14.55;8.15;;;14.70;99.90;;;;;;5072152;28;20120;-70
2021/08/10 03:03:17;;;;;;;12.75;7.22;;;14.70;99.90;;;;;;5073807;28;20044;-71
2021/08/10 03:05:45;;;;;;;14.52;7.57;;;14.70;99.90;;;;;;5073552;28;20040;-70
2021/08/10 03:08:20;;;;;;;11.52;6.80;;;14.70;99.90;;;;;;5073905;28;20041;-70
2021/08/10 03:10:48;;;;;;;11.50;6.82;;;14.70;99.90;;;;;;5073194;28;20044;-70
2021/08/10 03:13:16;;;;;;;13.18;6.95;;;14.70;99.90;;;;;;5073297;28;20029;-70
2021/08/10 03:15:44;;;;;;;11.82;7.53;;;14.70;99.90;;;;;;5073611;28;20032;-70
2021/08/10 03:18:14;;;;;;;10.85;7.20;;;14.70;99.90;;;;;;5073368;28;20063;-70
2021/08/10 03:20:42;;;;;;;12.85;7.20;;;14.70;99.90;;;;;;5072900;28;20044;-70
2021/08/10 03:23:13;;;;;;;10.23;6.70;;;14.70;99.90;;;;;;5073292;28;20473;-71
2021/08/10 03:25:40;;;;;;;12.43;6.70;;;14.70;99.90;;;;;;5073485;28;20078;-71
2021/08/10 03:28:06;;;;;;;11.70;7.57;;;14.70;99.90;;;;;;5073141;28;20044;-71
2021/08/10 03:30:32;;;;;;;12.13;6.45;;;14.70;99.90;;;;;;5071761;28;20032;-71
2021/08/10 03:32:59;;;;;;;12.63;7.65;;;14.70;99.90;;;;;;5073727;28;20469;-71
2021/08/10 03:35:26;;;;;;;14.07;7.47;;;14.70;99.90;;;;;;5073180;28;20045;-70
2021/08/10 03:37:53;;;;;;;14.90;7.25;;;14.70;99.90;;;;;;5073581;28;20040;-70
2021/08/10 03:40:19;;;;;;;14.48;7.40;;;14.70;99.90;;;;;;5073308;28;20059;-71
2021/08/10 03:42:45;;;;;;;11.13;6.50;;;14.70;99.90;;;;;;5073208;28;20412;-71
2021/08/10 03:45:13;;;;;;;8.82;6.80;;;14.70;99.90;;;;;;5073200;28;20040;-71
2021/08/10 03:47:39;;;;;;;12.50;6.72;;;14.70;99.90;;;;;;5073304;28;20051;-70
2021/08/10 03:50:10;;;;;;;12.15;7.00;;;14.80;99.90;;;;;;5072750;28;20036;-70
2021/08/10 03:52:37;;;;;;;15.77;7.43;;;14.70;99.90;;;;;;5073381;28;20040;-70
2021/08/10 03:55:03;;;;;;;12.20;7.38;;;14.80;99.90;;;;;;5073100;28;20098;-70
2021/08/10 03:57:35;;;;;;;18.60;8.20;;;14.80;99.90;;;;;;5072966;28;20483;-70
2021/08/10 04:00:01;;;;;;;15.40;6.63;;;14.80;99.90;;;;;;5072836;28;20043;-70
2021/08/10 04:02:31;;;;;;;12.43;7.82;;;14.80;99.90;;;;;;5072816;28;20040;-70
2021/08/10 04:04:58;;;;;;;15.77;8.95;;;14.80;99.90;;;;;;5073306;28;20128;-70
2021/08/10 04:07:24;;;;;;;17.73;8.23;;;14.80;99.90;;;;;;5074744;28;20119;-70
2021/08/10 04:09:51;;;;;;;14.13;8.23;;;14.80;99.90;;;;;;5075502;28;20079;-70
2021/08/10 04:12:19;;;;;;;11.15;8.13;;;14.80;99.90;;;;;;5076700;28;20040;-70
2021/08/10 04:14:44;;;;;;;15.45;9.20;;;14.80;99.90;;;;;;5076603;28;20041;-70
2021/08/10 04:17:11;;;;;;;14.23;8.80;;;14.80;99.90;;;;;;5076686;28;20033;-71
2021/08/10 04:19:45;;;;;;;15.95;8.60;;;14.80;99.90;;;;;;5075241;28;20044;-70
2021/08/10 04:22:11;;;;;;;13.30;8.27;;;14.70;99.90;;;;;;5076659;28;20043;-71
2021/08/10 04:24:37;;;;;;;17.60;8.23;;;14.70;99.90;;;;;;5076589;28;20045;-70
2021/08/10 04:27:03;;;;;;;15.98;9.10;;;14.70;99.90;;;;;;5075341;28;20036;-71
2021/08/10 04:29:29;;;;;;;17.58;8.98;;;14.70;99.90;;;;;;5075489;28;20082;-70
2021/08/10 04:31:54;;;;;;;21.35;9.50;;;14.70;99.90;;;;;;5076399;28;20536;-70
2021/08/10 04:34:20;;;;;;;16.10;8.68;;;14.80;99.90;;;;;;5075387;28;20036;-70
2021/08/10 04:36:46;;;;;;;16.63;9.23;;;14.80;99.90;;;;;;5076989;28;20040;-70
2021/08/10 04:39:11;;;;;;;17.13;8.30;;;14.80;99.90;;;;;;5075918;28;20044;-70
2021/08/10 04:41:37;;;;;;;17.48;9.48;;;14.90;99.90;;;;;;5076109;28;20036;-70
2021/08/10 04:44:03;;;;;;;15.80;9.25;;;15.00;99.90;;;;;;5076297;28;20407;-70
2021/08/10 04:46:29;;;;;;;18.15;9.88;;;15.00;99.90;;;;;;5076109;28;20468;-70
2021/08/10 04:48:55;;;;;;;13.77;9.02;;;15.00;99.90;;;;;;5074514;28;20043;-71
2021/08/10 04:51:21;;;;;;;15.55;9.05;;;15.00;99.90;;;;;;5075962;28;20476;-70
2021/08/10 04:53:46;;;;;;;12.82;8.73;;;15.00;99.90;;;;;;5076079;28;20098;-70
2021/08/10 04:56:12;;;;;;;16.45;8.40;;;15.00;99.90;;;;;;5074676;28;20037;-70
2021/08/10 04:58:38;;;;;;;14.20;8.02;;;15.00;99.90;;;;;;5075541;28;20484;-71
2021/08/10 05:01:05;;;;;;;17.83;8.07;;;15.00;99.90;;;;;;5076009;28;20036;-70
2021/08/10 05:03:31;;;;;;;17.13;9.25;;;15.10;99.90;;;;;;5076334;28;20043;-70
2021/08/10 05:05:58;;;;;;;14.93;9.82;;;15.10;99.90;;;;;;5075543;28;20044;-71
2021/08/10 05:08:24;;;;;;;16.23;9.15;;;15.10;99.90;;;;;;5075631;28;20040;-71
2021/08/10 05:10:50;;;;;;;13.27;8.82;;;15.10;99.90;;;;;;5075335;28;20447;-70
2021/08/10 05:13:16;;;;;;;14.30;9.30;;;15.10;99.90;;;;;;5075611;28;20040;-70
2021/08/10 05:15:41;;;;;;;15.02;9.57;;;15.10;99.90;;;;;;5075771;28;20044;-71
2021/08/10 05:18:08;;;;;;;17.55;8.77;;;15.10;99.90;;;;;;5075220;28;20496;-70
2021/08/10 05:20:34;;;;;;;16.23;9.02;;;15.10;99.90;;;;;;5074935;28;20124;-71
2021/08/10 05:23:00;;;;;;;12.02;8.77;;;15.10;99.90;;;;;;5075710;28;20054;-70
2021/08/10 05:25:26;;;;;;;14.77;8.73;;;15.10;99.90;;;;;;5075357;28;20033;-70
2021/08/10 05:27:52;;;;;;;17.20;8.95;;;15.10;99.90;;;;;;5075526;28;20089;-70
2021/08/10 05:30:18;;;;;;;12.23;7.93;;;15.10;99.90;;;;;;5075470;28;20043;-70
2021/08/10 05:32:43;;;;;;;18.35;9.45;;;15.10;99.90;;;;;;5075310;28;20071;-71
2021/08/10 05:35:09;;;;;;;13.18;8.07;;;15.10;99.90;;;;;;5075841;28;20075;-70
2021/08/10 05:37:35;;;;;;;14.30;8.43;;;15.10;99.90;;;;;;5075251;28;20484;-71
2021/08/10 05:40:02;;;;;;;13.38;8.13;;;15.10;99.90;;;;;;5075006;28;20075;-71
2021/08/10 05:42:28;;;;;;;16.95;8.85;;;15.20;99.90;;;;;;5075476;28;20153;-70
2021/08/10 05:44:54;;;;;;;14.32;8.05;;;15.20;99.90;;;;;;5075199;28;20127;-70
2021/08/10 05:47:20;;;;;;;16.95;9.10;;;15.20;99.90;;;;;;5075327;28;20036;-71
2021/08/10 05:49:45;;;;;;;14.43;8.40;;;15.20;99.90;;;;;;5074802;28;20048;-71
2021/08/10 05:52:11;;;;;;;16.05;8.95;;;15.20;99.90;;;;;;5074774;28;20045;-70
2021/08/10 05:54:37;;;;;;;15.32;9.40;;;15.20;99.90;;;;;;5074918;28;20036;-71
2021/08/10 05:57:04;;;;;;;19.02;9.73;;;15.30;99.90;;;;;;5075223;28;20036;-70
2021/08/10 05:59:30;;;;;;;12.82;8.68;;;15.30;99.90;;;;;;5074426;28;20043;-71
2021/08/10 06:01:59;;;;;;;16.73;9.98;;;15.30;99.90;;;;;;5074728;28;20420;-70
2021/08/10 06:04:25;;;;;;;13.73;9.02;;;15.30;99.90;;;;;;5074683;28;20047;-71
2021/08/10 06:06:52;;;;;;;18.45;9.10;;;15.40;99.90;;;;;;5074755;28;20048;-71
2021/08/10 06:09:18;;;;;;;11.75;8.75;;;15.50;99.90;;;;;;5074386;28;20119;-70
2021/08/10 06:11:44;;;;;;;18.08;9.90;;;15.40;99.90;;;;;;5074958;28;20079;-71
2021/08/10 06:14:09;;;;;;;17.27;9.32;;;15.50;99.90;;;;;;5074472;28;20058;-71
2021/08/10 06:16:35;;;;;;;18.25;10.77;;;15.50;99.90;;;;;;5074507;28;20090;-70
2021/08/10 06:19:02;;;;;;;14.70;10.98;;;15.50;99.90;;;;;;5074589;28;20040;-70
2021/08/10 06:21:27;;;;;;;14.45;10.50;;;15.70;99.90;;;;;;5074480;28;20102;-71
2021/08/10 06:23:53;;;;;;;17.00;11.60;;;15.80;99.90;;;;;;5074489;28;20451;-70
2021/08/10 06:26:20;;;;;;;18.58;12.90;;;15.80;99.90;;;;;;5074839;28;20482;-71
2021/08/10 06:28:46;;;;;;;22.40;13.68;;;15.90;99.90;;;;;;5073933;28;20396;-71
2021/08/10 06:31:11;;;;;;;21.88;14.27;;;16.00;99.90;;;;;;5074259;28;20043;-71
2021/08/10 06:33:38;;;;;;;22.13;13.57;;;16.10;99.90;;;;;;5073975;28;20036;-71
2021/08/10 06:36:04;;;;;;;23.05;13.75;;;16.20;99.90;;;;;;5074314;28;20044;-71
2021/08/10 06:38:30;;;;;;;18.80;12.98;;;16.20;99.90;;;;;;5073634;28;20064;-71
2021/08/10 06:40:56;;;;;;;22.45;14.25;;;16.30;99.90;;;;;;5073910;28;20068;-71
2021/08/10 06:43:21;;;;;;;16.17;13.40;;;16.20;99.90;;;;;;5074306;28;20109;-71
2021/08/10 06:45:47;;;;;;;16.70;12.70;;;16.20;99.90;;;;;;5074002;28;20040;-71
2021/08/10 06:48:13;;;;;;;18.13;14.45;;;16.20;99.90;;;;;;5073680;28;20064;-71
2021/08/10 06:50:38;;;;;;;20.38;13.27;;;16.10;99.90;;;;;;5073389;28;20044;-71
2021/08/10 06:53:04;;;;;;;18.95;13.35;;;16.10;99.90;;;;;;5073750;28;20083;-70
2021/08/10 06:55:30;;;;;;;17.02;13.05;;;16.10;99.90;;;;;;5073645;28;20033;-71
2021/08/10 06:57:55;;;;;;;20.80;13.70;;;16.10;99.90;;;;;;5073691;28;20036;-71
2021/08/10 07:00:21;;;;;;;18.25;11.93;;;16.10;99.90;;;;;;5073242;28;20041;-71
2021/08/10 07:02:47;;;;;;;16.33;12.60;;;16.10;99.90;;;;;;5073522;28;20043;-71
2021/08/10 07:05:14;;;;;;;21.88;13.55;;;16.00;99.90;;;;;;5073650;28;20066;-71
2021/08/10 07:07:41;;;;;;;16.95;12.20;;;16.00;99.90;;;;;;5073461;28;20062;-70
2021/08/10 07:10:07;;;;;;;16.38;9.73;;;16.10;99.90;;;;;;5073373;28;20040;-71
2021/08/10 07:12:33;;;;;;;14.50;12.07;;;16.20;99.90;;;;;;5073846;28;20036;-71
2021/08/10 07:14:58;;;;;;;16.60;12.02;;;16.30;99.90;;;;;;5073332;28;20037;-71
2021/08/10 07:17:24;;;;;;;13.70;10.27;;;16.50;99.90;;;;;;5073271;28;20044;-71
2021/08/10 07:19:50;;;;;;;11.13;8.98;;;16.70;99.90;;;;;;5073059;28;20040;-71
2021/08/10 07:22:15;;;;;;;9.27;7.50;;;16.70;99.90;;;;;;5073487;28;20101;-71
2021/08/10 07:24:41;;;;;;;9.35;6.78;;;16.60;99.90;;;;;;5073540;28;20063;-71
2021/08/10 07:27:07;;;;;;;8.13;7.30;;;16.60;99.90;;;;;;5073408;28;20097;-70
2021/08/10 07:29:32;;;;;;;8.80;6.80;;;16.50;99.90;;;;;;5071904;28;20101;-71
2021/08/10 07:31:58;;;;;;;7.55;5.93;;;16.40;99.90;;;;;;5073285;28;20048;-71
2021/08/10 07:34:24;;;;;;;10.77;6.97;;;16.30;99.90;;;;;;5073254;28;20043;-71
2021/08/10 07:36:49;;;;;;;9.13;7.20;;;16.20;99.90;;;;;;5073474;28;20035;-70
2021/08/10 07:39:15;;;;;;;10.65;7.10;;;16.10;99.90;;;;;;5073098;28;20062;-71
2021/08/10 07:41:41;;;;;;;11.63;7.05;;;16.00;99.90;;;;;;5072519;28;20067;-71
2021/08/10 07:44:07;;;;;;;10.85;7.65;;;16.00;99.90;;;;;;5073619;28;20484;-71
2021/08/10 07:46:33;;;;;;;14.63;7.85;;;16.00;99.90;;;;;;5073409;28;20064;-70
2021/08/10 07:49:00;;;;;;;11.98;8.15;;;16.00;99.90;;;;;;5072708;28;20045;-71
2021/08/10 07:51:26;;;;;;;10.60;7.88;;;15.90;99.90;;;;;;5076061;28;20472;-70
2021/08/10 07:53:52;;;;;;;9.77;7.38;;;16.00;99.90;;;;;;5093177;28;20137;-71
2021/08/10 07:56:18;;;;;;;11.32;6.60;;;15.90;99.90;;;;;;5092987;28;20032;-71
2021/08/10 07:58:45;;;;;;;11.48;7.35;;;15.90;99.90;;;;;;5092901;28;20070;-71
2021/08/10 08:01:11;;;;;;;12.43;6.85;;;15.80;99.90;;;;;;5093149;28;20032;-71
2021/08/10 08:03:37;;;;;;;9.52;6.05;;;15.80;99.90;;;;;;5093060;28;20032;-71
2021/08/10 08:06:03;;;;;;;6.03;4.93;;;15.70;99.90;;;;;;5093163;28;20047;-71
2021/08/10 08:08:30;;;;;;;10.25;4.50;;;15.60;99.90;;;;;;5092625;28;20540;-71
2021/08/10 08:10:57;;;;;;;7.10;4.18;;;15.50;99.90;;;;;;5093344;28;20044;-71
2021/08/10 08:13:24;;;;;;;5.28;3.85;;;15.40;99.90;;;;;;5092874;28;20032;-71
2021/08/10 08:15:50;;;;;;;9.18;3.92;;;15.40;99.90;;;;;;5093360;28;20097;-71
2021/08/10 08:18:17;;;;;;;6.75;3.88;;;15.30;99.90;;;;;;5092946;28;20040;-71
2021/08/10 08:20:44;;;;;;;6.00;3.42;;;15.30;99.90;;;;;;5092792;28;20119;-71
2021/08/10 08:23:13;;;;;;;5.50;3.60;;;15.30;99.90;;;;;;5093344;28;20035;-71
2021/08/10 08:25:39;;;;;;;5.88;4.18;;;15.40;99.90;;;;;;5092787;28;20411;-71
2021/08/10 08:28:08;;;;;;;6.65;4.40;;;15.50;99.90;;;;;;5092899;28;20040;-70
2021/08/10 08:30:38;;;;;;;35.95;25.25;;;15.50;99.90;;;;;;5092523;28;20032;-72
2021/08/10 08:33:05;;;;;;;7.28;5.80;;;15.70;99.90;;;;;;5093103;28;20126;-72
2021/08/10 08:35:31;;;;;;;6.88;4.93;;;15.80;99.90;;;;;;5092850;28;20032;-72
2021/08/10 08:37:56;;;;;;;10.35;5.68;;;15.90;99.90;;;;;;5092856;28;20043;-72
2021/08/10 08:40:24;;;;;;;15.80;6.00;;;16.00;99.90;;;;;;5092612;28;20097;-71
2021/08/10 08:42:50;;;;;;;9.55;7.13;;;16.20;99.90;;;;;;5092776;28;20048;-71
2021/08/10 08:45:16;;;;;;;9.10;6.68;;;16.30;99.90;;;;;;5092754;28;20040;-72
2021/08/10 08:47:50;;;;;;;9.30;7.35;;;16.40;99.90;;;;;;5092986;28;20123;-72
2021/08/10 08:50:20;;;;;;;10.93;8.30;;;16.40;99.90;;;;;;5092611;28;20048;-71
2021/08/10 08:52:50;;;;;;;16.23;9.68;;;16.50;99.90;;;;;;5092850;28;20101;-71
2021/08/10 08:55:16;;;;;;;12.73;9.90;;;16.60;99.90;;;;;;5095507;28;20044;-72
2021/08/10 08:57:43;;;;;;;16.75;11.68;;;16.80;99.90;;;;;;5096276;28;20480;-72
2021/08/10 09:00:12;;;;;;;16.60;12.43;;;17.00;99.90;;;;;;5095892;28;20088;-72
2021/08/10 09:02:38;;;;;;;21.33;13.18;;;17.30;99.90;;;;;;5096159;28;20044;-72
2021/08/10 09:05:05;;;;;;;21.25;13.57;;;17.60;99.90;;;;;;5096360;28;20047;-72
2021/08/10 09:07:31;;;;;;;19.63;14.98;;;17.80;99.90;;;;;;5096765;28;20063;-73
2021/08/10 09:10:14;;;;;;;20.50;15.48;;;17.90;99.90;;;;;;5095561;28;20044;-72
2021/08/10 09:12:41;;;;;;;18.85;15.35;;;18.00;99.90;;;;;;5096029;28;20112;-72
2021/08/10 09:15:07;;;;;;;19.48;15.38;;;18.00;99.90;;;;;;5096113;28;20039;-72
2021/08/10 09:17:46;;;;;;;19.98;14.30;;;18.20;99.90;;;;;;5096427;28;20039;-72
2021/08/10 09:20:21;;;;;;;19.13;14.63;;;18.30;99.90;;;;;;5095602;28;20047;-72
2021/08/10 09:22:51;;;;;;;22.58;15.02;;;18.40;99.90;;;;;;5094693;28;20032;-72
2021/08/10 09:25:17;;;;;;;18.67;14.25;;;18.40;99.90;;;;;;5095872;28;20111;-72
2021/08/10 09:27:44;;;;;;;21.35;13.02;;;18.40;99.90;;;;;;5095551;28;20111;-72
2021/08/10 09:30:16;;;;;;;15.65;12.25;;;18.30;99.90;;;;;;5095401;28;20051;-72
2021/08/10 09:32:56;;;;;;;18.38;13.68;;;18.50;99.90;;;;;;5095439;28;20036;-73
2021/08/10 09:35:23;;;;;;;17.30;12.43;;;18.60;99.90;;;;;;5095452;28;20040;-71
2021/08/10 09:38:07;;;;;;;15.43;12.18;;;18.50;99.90;;;;;;5095427;28;20039;-72
2021/08/10 09:40:45;;;;;;;17.48;12.30;;;18.50;99.90;;;;;;5094665;28;20052;-71
2021/08/10 09:43:21;;;;;;;15.30;11.27;;;18.40;99.90;;;;;;5095176;28;20399;-71
2021/08/10 09:45:47;;;;;;;14.43;12.07;;;18.50;99.90;;;;;;5095254;28;20054;-72
2021/08/10 09:48:14;;;;;;;15.95;11.77;;;18.60;99.90;;;;;;5095222;28;20476;-72
2021/08/10 09:50:40;;;;;;;17.45;11.82;;;18.80;99.90;;;;;;5094807;28;20044;-71
2021/08/10 09:53:20;;;;;;;16.00;10.20;;;19.00;99.90;;;;;;5095070;28;20046;-72
2021/08/10 09:55:57;;;;;;;10.07;8.25;;;19.20;99.90;;;;;;5095078;28;20097;-72
2021/08/10 09:58:23;;;;;;;10.95;9.40;;;19.10;99.90;;;;;;5095012;28;20058;-71
2021/08/10 10:00:50;;;;;;;11.93;9.57;;;19.40;99.90;;;;;;5094910;28;20075;-72
2021/08/10 10:03:27;;;;;;;14.68;6.93;;;19.40;99.90;;;;;;5095091;28;20059;-71
2021/08/10 10:05:56;;;;;;;10.65;6.60;;;19.70;99.90;;;;;;5094928;28;20115;-71
2021/08/10 10:08:24;;;;;;;9.00;5.93;;;19.80;99.90;;;;;;5094806;28;20532;-72
2021/08/10 10:10:53;;;;;;;10.65;6.65;;;19.80;99.90;;;;;;5094693;28;20051;-72
2021/08/10 10:13:21;;;;;;;13.93;7.20;;;19.60;99.90;;;;;;5093629;28;20518;-72
2021/08/10 10:15:47;;;;;;;7.20;5.75;;;19.40;99.90;;;;;;5094746;28;20036;-71
2021/08/10 10:18:14;;;;;;;9.27;5.20;;;19.10;99.90;;;;;;5095069;28;20032;-72
2021/08/10 10:20:49;;;;;;;7.22;5.82;;;19.30;99.90;;;;;;5094602;28;20043;-72
2021/08/10 10:23:23;;;;;;;8.35;6.00;;;19.60;99.90;;;;;;5094589;28;20043;-71
2021/08/10 10:25:51;;;;;;;9.60;5.15;;;19.80;99.90;;;;;;5094782;28;20040;-72
2021/08/10 10:28:18;;;;;;;6.93;5.13;;;19.90;99.90;;;;;;5094795;28;20101;-72
2021/08/10 10:30:46;;;;;;;6.78;4.78;;;19.90;99.90;;;;;;5094093;28;20157;-72
2021/08/10 10:33:14;;;;;;;9.88;5.28;;;19.80;99.90;;;;;;5094366;28;20039;-71
2021/08/10 10:35:41;;;;;;;8.40;5.30;;;19.60;99.90;;;;;;5094388;28;20506;-71
2021/08/10 10:38:07;;;;;;;10.00;5.85;;;19.60;99.90;;;;;;5094390;28;20507;-71
2021/08/10 10:40:34;;;;;;;9.85;5.22;;;19.70;99.90;;;;;;5094161;28;20036;-71
2021/08/10 10:43:00;;;;;;;6.75;4.32;;;19.60;99.90;;;;;;5093056;28;20036;-72
2021/08/10 10:45:40;;;;;;;7.97;4.20;;;19.60;99.90;;;;;;5093034;28;20135;-73
2021/08/10 10:48:25;;;;;;;4.78;3.88;;;19.70;99.90;;;;;;5094075;28;20032;-72
2021/08/10 10:51:12;;;;;;;7.25;4.93;;;19.80;99.90;;;;;;5093831;28;20067;-72
2021/08/10 10:53:41;;;;;;;8.18;4.68;;;19.80;99.90;;;;;;5094102;28;20089;-73
2021/08/10 10:56:25;;;;;;;6.18;4.50;;;19.60;99.90;;;;;;5094157;28;20042;-73
2021/08/10 10:58:53;;;;;;;8.45;4.35;;;19.50;99.90;;;;;;5093611;28;20036;-73
2021/08/10 11:01:30;;;;;;;10.20;4.47;;;19.40;99.90;;;;;;5093740;28;20480;-73
2021/08/10 11:04:06;;;;;;;5.60;3.95;;;19.30;99.90;;;;;;5093733;28;20051;-73
2021/08/10 11:06:34;;;;;;;7.35;4.50;;;19.40;99.90;;;;;;5093764;28;20036;-73
2021/08/10 11:09:04;;;;;;;9.30;4.60;;;19.50;99.90;;;;;;5093850;28;20093;-72
2021/08/10 11:11:51;;;;;;;8.07;4.55;;;19.50;99.90;;;;;;5093878;28;20036;-73
2021/08/10 11:14:35;;;;;;;6.90;4.20;;;19.50;99.90;;;;;;5094047;28;20395;-73
2021/08/10 11:17:12;;;;;;;7.68;4.05;;;19.40;99.90;;;;;;5092993;28;20039;-73
2021/08/10 11:19:43;;;;;;;6.82;4.35;;;19.50;99.90;;;;;;5093504;28;20051;-72
2021/08/10 11:22:15;;;;;;;12.55;4.90;;;19.50;99.90;;;;;;5093547;28;20053;-73
2021/08/10 11:24:45;;;;;;;9.38;4.93;;;19.40;99.90;;;;;;5093687;28;20051;-73
2021/08/10 11:27:29;;;;;;;6.72;4.80;;;19.40;99.90;;;;;;5092620;28;20031;-74
2021/08/10 11:29:55;;;;;;;9.98;4.80;;;19.40;99.90;;;;;;5093211;28;20146;-73
2021/08/10 11:32:46;;;;;;;8.40;5.32;;;19.30;99.90;;;;;;5093714;28;20141;-72
2021/08/10 11:35:27;;;;;;;8.95;5.03;;;19.10;99.90;;;;;;5093725;28;20036;-72
2021/08/10 11:38:13;;;;;;;12.18;4.97;;;19.00;99.90;;;;;;5093590;28;20040;-72
2021/08/10 11:40:47;;;;;;;11.70;5.20;;;18.90;99.90;;;;;;5092935;28;20040;-72
2021/08/10 11:43:16;;;;;;;6.65;4.60;;;18.80;99.90;;;;;;5093512;28;20111;-72
2021/08/10 11:45:42;;;;;;;8.02;4.43;;;18.70;99.90;;;;;;5093453;28;20081;-72
2021/08/10 11:48:08;;;;;;;7.20;3.85;;;18.80;99.90;;;;;;5093643;28;20036;-72
2021/08/10 11:50:35;;;;;;;6.82;3.63;;;18.90;99.90;;;;;;5092984;28;20055;-72
2021/08/10 11:53:02;;;;;;;8.68;3.88;;;19.00;99.90;;;;;;5093473;28;20055;-72
2021/08/10 11:55:35;;;;;;;7.90;4.70;;;19.00;99.90;;;;;;5093646;28;20036;-72
2021/08/10 11:58:06;;;;;;;9.10;4.00;;;19.00;99.90;;;;;;5093796;28;20040;-71
2021/08/10 12:00:35;;;;;;;8.20;3.88;;;19.20;99.90;;;;;;5093278;28;20043;-71
2021/08/10 12:03:02;;;;;;;7.15;3.80;;;19.30;99.90;;;;;;5093184;28;20036;-71
2021/08/10 12:05:29;;;;;;;9.65;3.78;;;19.50;99.90;;;;;;5092035;28;20036;-71
2021/08/10 12:07:59;;;;;;;7.43;4.00;;;19.60;99.90;;;;;;5093575;28;20112;-71
2021/08/10 12:10:31;;;;;;;8.98;4.40;;;19.80;99.90;;;;;;5092733;28;20048;-71
2021/08/10 12:13:00;;;;;;;5.60;3.83;;;20.00;99.90;;;;;;5093095;28;20047;-71
2021/08/10 12:15:37;;;;;;;6.65;4.00;;;20.10;99.90;;;;;;5093550;28;20040;-71
2021/08/10 12:18:03;;;;;;;5.32;3.67;;;20.20;99.90;;;;;;5093110;28;20395;-71
2021/08/10 12:20:29;;;;;;;10.05;4.38;;;20.20;99.90;;;;;;5092682;28;20036;-71
2021/08/10 12:23:21;;;;;;;9.88;3.97;;;20.40;99.90;;;;;;5093408;28;20040;-72
2021/08/10 12:25:47;;;;;;;5.20;3.83;;;20.30;99.90;;;;;;5091421;28;20043;-72
2021/08/10 12:28:12;;;;;;;6.70;4.13;;;20.10;99.90;;;;;;5094057;28;20510;-72
2021/08/10 12:30:42;;;;;;;6.35;3.65;;;20.00;99.90;;;;;;5096851;28;20048;-72
2021/08/10 12:33:16;;;;;;;5.80;3.28;;;19.90;99.90;;;;;;5096745;28;20036;-72
2021/08/10 12:36:00;;;;;;;5.28;3.20;;;19.80;99.90;;;;;;5096870;28;20074;-72
2021/08/10 12:38:27;;;;;;;4.68;2.95;;;19.80;99.90;;;;;;5096610;28;20040;-72
2021/08/10 12:40:53;;;;;;;4.47;2.70;;;19.90;99.90;;;;;;5096725;28;20048;-72
2021/08/10 12:43:21;;;;;;;5.35;2.92;;;20.00;99.90;;;;;;5096615;28;20064;-72
2021/08/10 12:45:46;;;;;;;6.13;2.67;;;19.90;99.90;;;;;;5096557;28;20064;-72